createdAt,value
2018-10-21T00:01:24.742Z,13.38
2018-10-21T00:03:53.774Z,13.37
2018-10-21T00:06:23.042Z,13.33
2018-10-21T00:08:52.066Z,13.19
2018-10-21T00:11:21.203Z,13.24
2018-10-21T00:13:50.257Z,13.21
2018-10-21T00:16:19.244Z,13.14
2018-10-21T00:18:48.277Z,13.17
2018-10-21T00:21:17.384Z,13.20
2018-10-21T00:23:46.432Z,13.16
2018-10-21T00:26:15.416Z,13.10
2018-10-21T00:28:44.422Z,13.18
2018-10-21T00:31:13.496Z,13.11
2018-10-21T00:33:44.138Z,13.04
2018-10-21T00:36:13.136Z,12.99
2018-10-21T00:38:42.726Z,12.92
2018-10-21T00:41:12.403Z,12.90
2018-10-21T00:43:41.385Z,12.89
2018-10-21T00:46:10.398Z,12.88
2018-10-21T00:48:39.656Z,12.89
2018-10-21T00:51:08.704Z,12.88
2018-10-21T00:53:37.805Z,12.75
2018-10-21T00:56:06.823Z,12.78
2018-10-21T00:58:35.884Z,12.71
2018-10-21T01:01:05.373Z,12.74
2018-10-21T01:03:34.347Z,12.74
2018-10-21T01:06:03.285Z,12.65
2018-10-21T01:08:32.332Z,12.71
2018-10-21T01:11:01.431Z,12.66
2018-10-21T01:13:30.424Z,12.65
2018-10-21T01:15:59.522Z,12.57
2018-10-21T01:18:28.887Z,12.58
2018-10-21T01:20:57.981Z,12.53
2018-10-21T01:23:26.970Z,12.64
2018-10-21T01:25:56.002Z,12.66
2018-10-21T01:28:24.978Z,12.52
2018-10-21T01:30:53.981Z,12.55
2018-10-21T01:33:22.979Z,12.49
2018-10-21T01:35:51.998Z,12.46
2018-10-21T01:38:21.237Z,12.34
2018-10-21T01:40:52.698Z,11.98
2018-10-21T01:43:23.014Z,10.87
2018-10-21T01:45:52.009Z,11.00
2018-10-21T01:48:22.183Z,11.82
2018-10-21T01:50:51.210Z,12.05
2018-10-21T01:53:20.871Z,12.16
2018-10-21T01:55:50.069Z,12.19
2018-10-21T01:58:19.078Z,12.25
2018-10-21T02:00:48.243Z,12.30
2018-10-21T02:03:17.538Z,12.28
2018-10-21T02:05:47.250Z,12.18
2018-10-21T02:08:16.266Z,12.17
2018-10-21T02:10:45.598Z,12.19
2018-10-21T02:13:14.622Z,12.21
2018-10-21T02:15:43.613Z,12.15
2018-10-21T02:18:12.610Z,12.13
2018-10-21T02:20:41.949Z,12.11
2018-10-21T02:23:10.937Z,12.03
2018-10-21T02:25:39.997Z,12.10
2018-10-21T02:28:09.048Z,12.07
2018-10-21T02:30:38.018Z,12.06
2018-10-21T02:33:07.397Z,12.06
2018-10-21T02:35:36.532Z,12.01
2018-10-21T02:38:06.129Z,12.01
2018-10-21T02:41:50.294Z,12.02
2018-10-21T02:44:20.486Z,11.65
2018-10-21T02:46:50.718Z,11.65
2018-10-21T02:49:20.429Z,11.53
2018-10-21T02:51:54.802Z,11.73
2018-10-21T02:54:25.078Z,11.67
2018-10-21T02:56:54.607Z,11.79
2018-10-21T02:59:24.082Z,11.81
2018-10-21T03:01:53.183Z,11.83
2018-10-21T03:04:22.483Z,11.82
2018-10-21T03:06:51.784Z,11.85
2018-10-21T03:09:21.031Z,11.73
2018-10-21T03:11:50.223Z,11.62
2018-10-21T03:14:19.442Z,11.67
2018-10-21T03:16:48.563Z,11.60
2018-10-21T03:19:17.571Z,11.63
2018-10-21T03:21:46.873Z,11.53
2018-10-21T03:24:15.910Z,11.54
2018-10-21T03:26:45.953Z,11.57
2018-10-21T03:29:14.948Z,11.47
2018-10-21T03:31:44.135Z,11.36
2018-10-21T03:34:13.124Z,11.34
2018-10-21T03:36:42.120Z,11.36
2018-10-21T03:39:11.658Z,11.36
2018-10-21T03:41:40.888Z,11.29
2018-10-21T03:44:10.122Z,11.35
2018-10-21T03:46:39.118Z,11.28
2018-10-21T03:49:08.369Z,11.31
2018-10-21T03:51:37.625Z,11.36
2018-10-21T03:54:06.626Z,11.33
2018-10-21T03:56:35.609Z,11.26
2018-10-21T03:59:04.642Z,11.34
2018-10-21T04:01:33.633Z,11.25
2018-10-21T04:04:02.687Z,11.31
2018-10-21T04:06:31.790Z,11.15
2018-10-21T04:09:00.842Z,11.12
2018-10-21T04:11:29.850Z,11.18
2018-10-21T04:13:58.929Z,11.18
2018-10-21T04:16:27.914Z,11.19
2018-10-21T04:18:56.901Z,11.14
2018-10-21T04:21:25.918Z,11.09
2018-10-21T04:23:54.889Z,10.34
2018-10-21T04:26:23.875Z,10.67
2018-10-21T04:28:52.876Z,10.81
2018-10-21T04:31:21.956Z,10.56
2018-10-21T04:33:50.946Z,10.62
2018-10-21T04:36:23.005Z,10.76
2018-10-21T04:40:08.853Z,10.84
2018-10-21T04:42:37.847Z,10.60
2018-10-21T04:45:07.787Z,10.84
2018-10-21T04:47:37.057Z,10.89
2018-10-21T04:50:08.030Z,10.79
2018-10-21T04:52:37.244Z,10.53
2018-10-21T04:55:13.938Z,10.73
2018-10-21T04:57:44.199Z,10.84
2018-10-21T05:00:16.553Z,10.87
2018-10-21T05:02:45.791Z,10.50
2018-10-21T05:05:15.766Z,10.49
2018-10-21T05:07:44.800Z,10.76
2018-10-21T05:10:23.836Z,10.91
2018-10-21T05:12:52.850Z,10.80
2018-10-21T05:15:22.705Z,10.83
2018-10-21T05:17:52.130Z,10.92
2018-10-21T05:20:21.185Z,10.80
2018-10-21T05:22:50.199Z,10.89
2018-10-21T05:25:19.697Z,10.84
2018-10-21T05:27:48.692Z,10.84
2018-10-21T05:30:17.878Z,10.58
2018-10-21T05:32:47.146Z,10.78
2018-10-21T05:35:17.099Z,10.79
2018-10-21T05:37:46.119Z,10.73
2018-10-21T05:40:16.986Z,10.65
2018-10-21T05:42:46.343Z,10.67
2018-10-21T05:45:15.366Z,10.67
2018-10-21T05:47:44.418Z,10.72
2018-10-21T05:50:14.554Z,10.67
2018-10-21T05:52:43.854Z,10.66
2018-10-21T05:55:13.871Z,10.74
2018-10-21T05:57:42.926Z,10.74
2018-10-21T06:00:14.822Z,10.67
2018-10-21T06:02:44.112Z,10.70
2018-10-21T06:05:45.140Z,10.73
2018-10-21T06:08:14.179Z,10.63
2018-10-21T06:10:44.098Z,10.60
2018-10-21T06:13:13.383Z,10.48
2018-10-21T06:15:42.500Z,10.57
2018-10-21T06:18:28.561Z,10.63
2018-10-21T06:21:00.740Z,10.67
2018-10-21T06:23:29.799Z,10.67
2018-10-21T06:25:59.139Z,10.74
2018-10-21T06:28:28.180Z,10.75
2018-10-21T06:30:57.179Z,10.74
2018-10-21T06:40:27.436Z,10.04
2018-10-21T06:42:56.631Z,10.48
2018-10-21T06:45:25.724Z,10.64
2018-10-21T06:47:55.000Z,10.69
2018-10-21T06:50:24.010Z,10.80
2018-10-21T06:52:53.119Z,10.75
2018-10-21T06:55:22.174Z,10.84
2018-10-21T06:57:51.509Z,10.86
2018-10-21T07:00:20.457Z,10.89
2018-10-21T07:02:50.032Z,10.99
2018-10-21T07:05:36.415Z,10.93
2018-10-21T07:08:05.602Z,10.89
2018-10-21T07:10:34.629Z,11.01
2018-10-21T07:13:03.613Z,10.99
2018-10-21T07:15:32.698Z,11.09
2018-10-21T07:18:01.682Z,11.10
2018-10-21T07:20:30.689Z,11.04
2018-10-21T07:22:59.793Z,11.23
2018-10-21T07:25:28.806Z,11.23
2018-10-21T07:27:57.808Z,11.26
2018-10-21T07:30:26.803Z,11.30
2018-10-21T07:32:55.806Z,11.17
2018-10-21T07:35:24.792Z,11.18
2018-10-21T07:37:53.978Z,11.35
2018-10-21T07:40:22.945Z,11.40
2018-10-21T07:42:51.980Z,11.47
2018-10-21T07:45:21.071Z,11.56
2018-10-21T07:47:51.570Z,11.52
2018-10-21T07:50:20.983Z,11.61
2018-10-21T07:52:50.010Z,11.64
2018-10-21T07:55:19.475Z,11.81
2018-10-21T07:57:48.865Z,11.67
2018-10-21T08:00:18.170Z,11.70
2018-10-21T08:02:47.179Z,11.72
2018-10-21T08:05:33.617Z,11.70
2018-10-21T08:08:14.051Z,11.83
2018-10-21T08:10:43.258Z,11.90
2018-10-21T08:13:13.244Z,11.89
2018-10-21T08:15:43.285Z,11.88
2018-10-21T08:18:13.076Z,11.72
2018-10-21T08:20:43.169Z,12.02
2018-10-21T08:23:13.402Z,12.17
2018-10-21T08:25:43.006Z,12.36
2018-10-21T08:28:12.185Z,12.12
2018-10-21T08:30:41.171Z,12.32
2018-10-21T08:33:10.222Z,12.39
2018-10-21T08:35:39.290Z,12.59
2018-10-21T08:38:08.262Z,12.55
2018-10-21T08:40:37.329Z,12.54
2018-10-21T08:43:06.591Z,12.58
2018-10-21T08:45:35.743Z,12.54
2018-10-21T08:48:04.789Z,12.54
2018-10-21T08:50:34.071Z,12.64
2018-10-21T08:53:03.123Z,12.71
2018-10-21T08:55:32.537Z,12.86
2018-10-21T08:58:01.585Z,12.86
2018-10-21T09:00:30.537Z,12.82
2018-10-21T09:02:59.534Z,12.89
2018-10-21T09:05:28.589Z,13.11
2018-10-21T09:07:57.618Z,13.26
2018-10-21T09:10:26.608Z,12.94
2018-10-21T09:12:55.747Z,13.15
2018-10-21T09:15:24.743Z,13.42
2018-10-21T09:17:53.769Z,13.12
2018-10-21T09:20:23.045Z,13.38
2018-10-21T09:22:52.092Z,13.72
2018-10-21T09:25:21.118Z,13.76
2018-10-21T09:27:50.370Z,13.78
2018-10-21T09:30:19.409Z,13.90
2018-10-21T09:32:48.414Z,13.78
2018-10-21T09:35:18.535Z,14.02
2018-10-21T09:37:47.894Z,14.25
2018-10-21T09:40:18.373Z,14.14
2018-10-21T09:42:47.955Z,14.16
2018-10-21T09:45:18.403Z,14.11
2018-10-21T09:47:47.594Z,14.28
2018-10-21T09:50:16.734Z,14.23
2018-10-21T09:52:45.753Z,14.24
2018-10-21T09:55:18.657Z,14.32
2018-10-21T09:57:48.478Z,14.55
2018-10-21T10:00:22.742Z,14.50
2018-10-21T10:02:57.108Z,14.18
2018-10-21T10:05:26.186Z,14.34
2018-10-21T10:07:55.917Z,14.48
2018-10-21T10:10:25.634Z,14.56
2018-10-21T10:12:54.820Z,14.37
2018-10-21T10:15:23.921Z,13.58
2018-10-21T10:17:53.392Z,14.53
2018-10-21T10:20:22.646Z,14.58
2018-10-21T10:22:51.987Z,14.58
2018-10-21T10:25:20.992Z,14.86
2018-10-21T10:27:49.983Z,15.22
2018-10-21T10:30:19.099Z,15.10
2018-10-21T10:32:48.153Z,14.78
2018-10-21T10:35:17.155Z,14.99
2018-10-21T10:37:46.211Z,14.53
2018-10-21T10:40:15.193Z,14.94
2018-10-21T10:42:44.373Z,14.42
2018-10-21T10:45:13.359Z,14.99
2018-10-21T10:47:42.370Z,15.31
2018-10-21T10:50:11.990Z,15.16
2018-10-21T10:52:41.291Z,15.43
2018-10-21T10:55:10.749Z,15.33
2018-10-21T10:57:39.731Z,16.14
2018-10-21T11:00:10.593Z,14.13
2018-10-21T11:02:39.972Z,14.59
2018-10-21T11:05:09.966Z,14.98
2018-10-21T11:07:39.175Z,15.51
2018-10-21T11:10:09.413Z,15.58
2018-10-21T11:12:38.444Z,15.50
2018-10-21T11:15:08.330Z,15.05
2018-10-21T11:17:37.319Z,15.42
2018-10-21T11:20:06.887Z,15.56
2018-10-21T11:22:35.957Z,15.36
2018-10-21T11:25:06.922Z,15.69
2018-10-21T11:27:36.053Z,15.76
2018-10-21T11:30:05.882Z,15.89
2018-10-21T11:32:34.935Z,15.51
2018-10-21T11:35:04.815Z,15.70
2018-10-21T11:37:33.924Z,15.11
2018-10-21T11:40:02.859Z,15.78
2018-10-21T11:42:32.490Z,14.99
2018-10-21T11:45:02.048Z,15.69
2018-10-21T11:47:31.082Z,15.83
2018-10-21T11:50:00.103Z,15.98
2018-10-21T11:52:29.168Z,15.96
2018-10-21T11:54:58.205Z,15.73
2018-10-21T11:57:27.180Z,15.66
2018-10-21T11:59:56.178Z,16.06
2018-10-21T12:02:25.406Z,15.34
2018-10-21T12:04:54.416Z,16.07
2018-10-21T12:07:23.714Z,15.85
2018-10-21T12:09:53.251Z,14.51
2018-10-21T12:12:22.292Z,15.65
2018-10-21T12:14:51.269Z,15.79
2018-10-21T12:17:20.410Z,15.66
2018-10-21T12:19:49.508Z,14.98
2018-10-21T12:22:18.574Z,15.71
2018-10-21T12:24:47.655Z,15.94
2018-10-21T12:27:16.625Z,16.11
2018-10-21T12:29:45.626Z,15.95
2018-10-21T12:32:14.962Z,16.09
2018-10-21T12:34:44.110Z,16.17
2018-10-21T12:37:13.809Z,15.93
2018-10-21T12:39:42.721Z,16.07
2018-10-21T12:42:11.758Z,15.80
2018-10-21T12:44:40.924Z,15.95
2018-10-21T12:47:10.026Z,16.16
2018-10-21T12:49:38.978Z,16.24
2018-10-21T12:52:07.968Z,15.18
2018-10-21T12:54:37.121Z,15.77
2018-10-21T12:57:06.347Z,16.26
2018-10-21T12:59:35.411Z,16.34
2018-10-21T13:02:04.444Z,16.37
2018-10-21T13:04:33.505Z,16.33
2018-10-21T13:07:02.914Z,16.31
2018-10-21T13:09:31.853Z,16.32
2018-10-21T13:12:00.853Z,16.30
2018-10-21T13:14:29.829Z,16.22
2018-10-21T13:16:58.890Z,16.35
2018-10-21T13:19:28.234Z,16.31
2018-10-21T13:21:57.315Z,16.10
2018-10-21T13:24:26.384Z,16.06
2018-10-21T13:26:55.701Z,16.11
2018-10-21T13:29:24.681Z,15.92
2018-10-21T13:31:53.892Z,16.27
2018-10-21T13:34:23.281Z,16.41
2018-10-21T13:36:52.906Z,16.10
2018-10-21T13:39:21.915Z,16.30
2018-10-21T13:41:50.892Z,14.80
2018-10-21T13:44:19.946Z,15.88
2018-10-21T13:46:48.942Z,14.98
2018-10-21T13:49:17.962Z,15.80
2018-10-21T13:51:46.972Z,15.77
2018-10-21T13:54:15.948Z,15.94
2018-10-21T13:56:44.947Z,15.94
2018-10-21T13:59:14.041Z,16.23
2018-10-21T14:01:43.070Z,16.06
2018-10-21T14:04:12.231Z,16.36
2018-10-21T14:06:41.268Z,15.75
2018-10-21T14:09:12.500Z,16.35
2018-10-21T14:11:41.782Z,16.38
2018-10-21T14:14:11.835Z,16.51
2018-10-21T14:16:41.154Z,16.36
2018-10-21T14:19:10.319Z,16.33
2018-10-21T14:21:39.663Z,15.96
2018-10-21T14:24:08.753Z,15.44
2018-10-21T14:26:37.846Z,15.42
2018-10-21T14:29:07.164Z,16.06
2018-10-21T14:31:36.446Z,16.54
2018-10-21T14:34:06.123Z,16.42
2018-10-21T14:36:35.431Z,16.37
2018-10-21T14:39:08.833Z,16.54
2018-10-21T14:41:38.987Z,15.74
2018-10-21T14:44:08.886Z,16.45
2018-10-21T14:46:39.924Z,16.20
2018-10-21T14:49:10.290Z,15.60
2018-10-21T14:51:40.378Z,15.99
2018-10-21T14:54:10.475Z,16.38
2018-10-21T14:56:40.377Z,16.42
2018-10-21T14:59:09.972Z,16.40
2018-10-21T15:01:39.678Z,16.29
2018-10-21T15:04:09.387Z,16.33
2018-10-21T15:06:39.364Z,16.04
2018-10-21T15:09:13.551Z,16.18
2018-10-21T15:11:43.365Z,16.33
2018-10-21T15:14:13.519Z,15.82
2018-10-21T15:16:43.760Z,16.12
2018-10-21T15:19:13.376Z,15.89
2018-10-21T15:21:43.766Z,15.66
2018-10-21T15:24:13.686Z,16.23
2018-10-21T15:26:43.722Z,16.15
2018-10-21T15:29:14.690Z,15.98
2018-10-21T15:31:44.650Z,16.13
2018-10-21T15:34:14.874Z,16.21
2018-10-21T15:36:45.984Z,16.17
2018-10-21T15:39:17.696Z,16.03
2018-10-21T15:41:47.205Z,16.16
2018-10-21T15:44:18.285Z,16.04
2018-10-21T15:46:47.974Z,15.55
2018-10-21T15:49:17.704Z,15.91
2018-10-21T15:51:49.327Z,16.01
2018-10-21T15:54:20.374Z,15.97
2018-10-21T15:56:52.124Z,15.98
2018-10-21T15:59:21.165Z,15.95
2018-10-21T16:01:50.740Z,15.95
2018-10-21T16:04:22.041Z,15.92
2018-10-21T16:06:51.904Z,15.84
2018-10-21T16:09:22.305Z,15.90
2018-10-21T16:11:51.698Z,15.80
2018-10-21T16:14:20.968Z,15.81
2018-10-21T16:16:49.952Z,15.78
2018-10-21T16:19:19.797Z,15.78
2018-10-21T16:21:49.206Z,15.78
2018-10-21T16:24:18.478Z,15.78
2018-10-21T16:26:47.928Z,15.68
2018-10-21T16:29:17.059Z,15.59
2018-10-21T16:31:46.096Z,15.53
2018-10-21T16:34:16.487Z,15.38
2018-10-21T16:36:46.662Z,15.48
2018-10-21T16:39:16.291Z,15.38
2018-10-21T16:41:46.192Z,15.39
2018-10-21T16:44:16.143Z,15.25
2018-10-21T16:46:45.942Z,15.20
2018-10-21T16:49:16.696Z,15.18
2018-10-21T16:51:46.635Z,15.30
2018-10-21T16:54:17.809Z,15.18
2018-10-21T16:56:47.948Z,15.24
2018-10-21T16:59:18.493Z,15.30
2018-10-21T17:01:48.618Z,15.42
2018-10-21T17:04:17.762Z,15.22
2018-10-21T17:06:48.349Z,14.76
2018-10-21T17:09:17.517Z,15.29
2018-10-21T17:11:46.917Z,15.29
2018-10-21T17:14:15.990Z,14.96
2018-10-21T17:16:45.173Z,14.99
2018-10-21T17:19:14.470Z,14.87
2018-10-21T17:21:43.657Z,14.91
2018-10-21T17:24:12.663Z,14.90
2018-10-21T17:26:41.617Z,14.73
2018-10-21T17:29:10.597Z,14.85
2018-10-21T17:31:39.569Z,15.00
2018-10-21T17:34:09.158Z,14.96
2018-10-21T17:36:38.249Z,14.60
2018-10-21T17:39:13.477Z,14.78
2018-10-21T17:41:42.704Z,14.60
2018-10-21T17:44:12.266Z,14.73
2018-10-21T17:46:41.321Z,14.81
2018-10-21T17:49:10.676Z,14.74
2018-10-21T17:51:39.631Z,14.53
2018-10-21T17:54:09.038Z,14.69
2018-10-21T17:56:43.596Z,14.98
2018-10-21T17:59:12.700Z,14.78
2018-10-21T18:01:41.745Z,15.02
2018-10-21T18:04:10.790Z,14.68
2018-10-21T18:06:39.859Z,14.60
2018-10-21T18:09:10.814Z,14.74
2018-10-21T18:11:39.873Z,14.51
2018-10-21T18:14:09.251Z,14.61
2018-10-21T18:16:38.422Z,14.59
2018-10-21T18:19:07.951Z,14.61
2018-10-21T18:21:36.910Z,14.55
2018-10-21T18:24:06.258Z,14.36
2018-10-21T18:26:35.592Z,14.44
2018-10-21T18:29:04.863Z,14.55
2018-10-21T18:31:33.896Z,14.63
2018-10-21T18:34:02.952Z,14.53
2018-10-21T18:36:31.944Z,14.41
2018-10-21T18:39:01.142Z,13.98
2018-10-21T18:41:30.155Z,14.12
2018-10-21T18:43:59.170Z,14.39
2018-10-21T18:46:28.162Z,13.86
2018-10-21T18:48:57.196Z,13.49
2018-10-21T18:51:26.225Z,13.81
2018-10-21T18:53:55.228Z,14.15
2018-10-21T18:56:24.206Z,14.24
2018-10-21T18:58:53.204Z,13.90
2018-10-21T19:01:22.173Z,13.77
2018-10-21T19:03:51.170Z,13.74
2018-10-21T19:06:20.445Z,14.12
2018-10-21T19:08:49.518Z,13.86
2018-10-21T19:11:18.509Z,13.92
2018-10-21T19:13:47.679Z,13.88
2018-10-21T19:16:16.723Z,13.46
2018-10-21T19:18:45.623Z,13.48
2018-10-21T19:21:14.613Z,13.50
2018-10-21T19:23:43.749Z,13.93
2018-10-21T19:26:12.739Z,13.72
2018-10-21T19:28:41.763Z,13.72
2018-10-21T19:31:11.140Z,13.35
2018-10-21T19:33:40.461Z,14.00
2018-10-21T19:36:09.681Z,13.95
2018-10-21T19:38:38.682Z,13.73
2018-10-21T19:41:07.827Z,13.99
2018-10-21T19:43:37.078Z,14.26
2018-10-21T19:46:06.216Z,13.99
2018-10-21T19:48:35.225Z,14.11
2018-10-21T19:51:04.466Z,13.97
2018-10-21T19:53:33.663Z,14.13
2018-10-21T19:56:02.725Z,13.88
2018-10-21T19:58:31.790Z,14.06
2018-10-21T20:01:00.962Z,13.87
2018-10-21T20:03:30.114Z,13.74
2018-10-21T20:05:59.292Z,14.00
2018-10-21T20:08:28.518Z,14.13
2018-10-21T20:10:57.572Z,13.59
2018-10-21T20:13:26.943Z,13.96
2018-10-21T20:15:56.091Z,13.89
2018-10-21T20:18:25.236Z,13.95
2018-10-21T20:20:54.171Z,13.79
2018-10-21T20:23:23.172Z,13.82
2018-10-21T20:25:52.146Z,13.64
2018-10-21T20:28:21.148Z,13.94
2018-10-21T20:30:50.165Z,14.06
2018-10-21T20:33:19.390Z,13.74
2018-10-21T20:35:48.355Z,13.97
2018-10-21T20:38:17.423Z,13.70
2018-10-21T20:40:46.382Z,13.44
2018-10-21T20:43:15.740Z,13.75
2018-10-21T20:45:44.834Z,14.03
2018-10-21T20:48:14.229Z,13.25
2018-10-21T20:50:43.222Z,13.75
2018-10-21T20:53:12.203Z,13.69
2018-10-21T20:55:41.218Z,13.55
2018-10-21T20:58:10.207Z,13.66
2018-10-21T21:00:39.189Z,13.71
2018-10-21T21:03:08.260Z,13.70
2018-10-21T21:05:37.242Z,13.69
2018-10-21T21:08:06.309Z,13.67
2018-10-21T21:10:35.294Z,13.55
2018-10-21T21:13:04.274Z,13.67
2018-10-21T21:15:33.273Z,13.73
2018-10-21T21:18:02.337Z,13.66
2018-10-21T21:20:31.357Z,13.57
2018-10-21T21:23:00.332Z,13.55
2018-10-21T21:25:30.035Z,13.57
2018-10-21T21:27:59.438Z,13.49
2018-10-21T21:30:28.720Z,13.50
2018-10-21T21:32:57.701Z,13.56
2018-10-21T21:35:26.701Z,13.51
2018-10-21T21:37:55.674Z,12.72
2018-10-21T21:40:24.760Z,13.33
2018-10-21T21:42:54.060Z,12.40
2018-10-21T21:45:23.090Z,13.56
2018-10-21T21:47:52.077Z,13.61
2018-10-21T21:50:21.338Z,13.21
2018-10-21T21:52:50.333Z,13.32
2018-10-21T21:55:19.315Z,13.36
2018-10-21T21:57:48.798Z,13.49
2018-10-21T22:00:17.851Z,13.71
2018-10-21T22:02:46.810Z,13.69
2018-10-21T22:05:15.823Z,13.43
2018-10-21T22:07:44.830Z,12.86
2018-10-21T22:10:14.317Z,13.49
2018-10-21T22:12:44.206Z,13.49
2018-10-21T22:15:13.544Z,13.06
2018-10-21T22:17:42.792Z,13.47
2018-10-21T22:20:12.840Z,13.00
2018-10-21T22:22:42.234Z,13.30
2018-10-21T22:25:11.228Z,13.57
2018-10-21T22:27:40.398Z,13.59
2018-10-21T22:30:11.012Z,13.51
2018-10-21T22:32:39.982Z,13.65
2018-10-21T22:35:09.666Z,12.96
2018-10-21T22:37:39.066Z,13.02
2018-10-21T22:40:08.166Z,13.40
2018-10-21T22:42:37.362Z,13.72
2018-10-21T22:45:08.301Z,13.81
2018-10-21T22:47:37.519Z,13.88
2018-10-21T22:50:08.695Z,13.89
2018-10-21T22:52:37.707Z,13.58
2018-10-21T22:55:07.567Z,13.51
2018-10-21T22:57:36.562Z,13.78
2018-10-21T23:00:07.732Z,13.71
2018-10-21T23:02:36.650Z,13.65
2018-10-21T23:05:07.330Z,13.13
2018-10-21T23:07:36.622Z,12.76
2018-10-21T23:10:06.168Z,13.65
2018-10-21T23:12:35.101Z,14.03
2018-10-21T23:15:04.091Z,13.46
2018-10-21T23:17:33.149Z,14.02
2018-10-21T23:20:02.161Z,13.59
2018-10-21T23:22:31.134Z,13.61
2018-10-21T23:25:00.129Z,13.98
2018-10-21T23:27:29.121Z,13.95
2018-10-21T23:29:58.120Z,14.08
2018-10-21T23:32:27.102Z,13.42
2018-10-21T23:34:56.669Z,13.30
2018-10-21T23:37:25.674Z,13.59
2018-10-21T23:39:54.996Z,13.92
2018-10-21T23:42:24.009Z,13.30
2018-10-21T23:44:52.999Z,13.32
2018-10-21T23:47:21.998Z,13.42
2018-10-21T23:49:51.502Z,13.62
2018-10-21T23:52:21.041Z,13.49
2018-10-21T23:54:50.480Z,13.90
2018-10-21T23:57:19.486Z,13.76
2018-10-21T23:59:48.755Z,14.13
